createdAt,value
2019-03-26T00:00:50.053Z,2.72
2019-03-26T00:03:19.983Z,2.50
2019-03-26T00:05:49.922Z,2.92
2019-03-26T00:08:19.773Z,2.85
2019-03-26T00:10:49.732Z,3.12
2019-03-26T00:13:19.648Z,3.27
2019-03-26T00:15:49.493Z,2.75
2019-03-26T00:18:19.332Z,3.15
2019-03-26T00:20:49.195Z,2.95
2019-03-26T00:23:19.107Z,3.70
2019-03-26T00:25:48.999Z,2.85
2019-03-26T00:28:18.911Z,2.90
2019-03-26T00:30:48.882Z,3.05
2019-03-26T00:33:18.716Z,2.95
2019-03-26T00:35:48.584Z,3.27
2019-03-26T00:38:18.432Z,2.75
2019-03-26T00:40:48.299Z,3.17
2019-03-26T00:43:18.239Z,3.40
2019-03-26T00:45:48.086Z,3.60
2019-03-26T00:48:18.966Z,3.37
2019-03-26T00:50:49.442Z,3.40
2019-03-26T00:53:20.056Z,3.20
2019-03-26T00:55:50.495Z,3.42
2019-03-26T00:58:20.328Z,3.35
2019-03-26T01:00:50.285Z,3.37
2019-03-26T01:03:20.259Z,3.40
2019-03-26T01:05:50.111Z,2.67
2019-03-26T01:08:19.974Z,2.80
2019-03-26T01:10:49.880Z,3.50
2019-03-26T01:13:19.758Z,3.00
2019-03-26T01:15:49.700Z,3.00
2019-03-26T01:18:20.798Z,3.25
2019-03-26T01:20:50.687Z,3.00
2019-03-26T01:23:21.636Z,3.40
2019-03-26T01:25:51.542Z,2.98
2019-03-26T01:28:21.497Z,3.20
2019-03-26T01:30:51.506Z,3.25
2019-03-26T01:33:21.418Z,3.35
2019-03-26T01:35:51.332Z,3.10
2019-03-26T01:38:21.207Z,3.40
2019-03-26T01:40:51.139Z,3.72
2019-03-26T01:43:21.034Z,4.35
2019-03-26T01:45:50.913Z,4.08
2019-03-26T01:48:20.784Z,4.15
2019-03-26T01:50:50.633Z,4.28
2019-03-26T01:53:20.557Z,4.30
2019-03-26T01:55:50.497Z,4.83
2019-03-26T01:58:20.402Z,5.05
2019-03-26T02:00:50.256Z,5.55
2019-03-26T02:03:20.120Z,5.03
2019-03-26T02:05:49.972Z,5.60
2019-03-26T02:08:19.942Z,5.17
2019-03-26T02:10:49.857Z,4.62
2019-03-26T02:13:19.730Z,4.85
2019-03-26T02:15:49.691Z,4.12
2019-03-26T02:18:19.600Z,4.97
2019-03-26T02:20:50.592Z,4.20
2019-03-26T02:23:20.490Z,4.08
2019-03-26T02:25:50.423Z,3.87
2019-03-26T02:28:21.317Z,4.55
2019-03-26T02:30:51.240Z,4.08
2019-03-26T02:33:21.202Z,4.92
2019-03-26T02:35:51.053Z,4.10
2019-03-26T02:38:20.991Z,4.30
2019-03-26T02:40:50.917Z,4.30
2019-03-26T02:43:20.840Z,4.08
2019-03-26T02:45:50.782Z,5.05
2019-03-26T02:48:20.661Z,4.42
2019-03-26T02:50:50.769Z,4.60
2019-03-26T02:53:20.677Z,4.30
2019-03-26T02:55:50.601Z,4.35
2019-03-26T02:58:20.472Z,4.30
2019-03-26T03:00:50.403Z,4.15
2019-03-26T03:03:20.352Z,4.53
2019-03-26T03:05:50.240Z,4.60
2019-03-26T03:08:20.178Z,5.33
2019-03-26T03:10:50.095Z,4.70
2019-03-26T03:13:20.130Z,5.00
2019-03-26T03:15:50.015Z,4.78
2019-03-26T03:18:19.916Z,4.78
2019-03-26T03:20:49.772Z,4.83
2019-03-26T03:23:19.692Z,4.25
2019-03-26T03:25:50.713Z,4.17
2019-03-26T03:28:20.627Z,4.42
2019-03-26T03:30:50.621Z,3.77
2019-03-26T03:33:21.629Z,3.35
2019-03-26T03:35:53.069Z,4.40
2019-03-26T03:38:23.304Z,3.65
2019-03-26T03:40:53.269Z,3.70
2019-03-26T03:43:23.119Z,3.98
2019-03-26T03:45:53.825Z,3.70
2019-03-26T03:48:24.421Z,3.50
2019-03-26T03:50:56.278Z,4.33
2019-03-26T03:53:26.931Z,3.85
2019-03-26T03:55:58.043Z,3.72
2019-03-26T03:58:29.750Z,3.65
2019-03-26T04:00:59.624Z,4.00
2019-03-26T04:03:29.618Z,4.62
2019-03-26T04:06:08.680Z,3.70
2019-03-26T04:08:31.090Z,3.98
2019-03-26T04:11:01.026Z,3.90
2019-03-26T04:13:30.938Z,3.60
2019-03-26T04:16:00.884Z,4.25
2019-03-26T04:18:30.793Z,3.90
2019-03-26T04:21:00.722Z,4.37
2019-03-26T04:23:31.168Z,4.37
2019-03-26T04:26:01.139Z,4.45
2019-03-26T04:28:31.035Z,4.67
2019-03-26T04:31:00.967Z,4.40
2019-03-26T04:33:30.886Z,4.67
2019-03-26T04:36:00.825Z,4.70
2019-03-26T04:38:31.719Z,4.65
2019-03-26T04:41:01.581Z,4.40
2019-03-26T04:43:31.605Z,4.60
2019-03-26T04:46:01.543Z,4.70
2019-03-26T04:48:31.410Z,4.90
2019-03-26T04:51:01.344Z,4.10
2019-03-26T04:53:34.111Z,5.10
2019-03-26T04:56:02.795Z,4.12
2019-03-26T04:58:32.724Z,4.30
2019-03-26T05:01:02.634Z,4.40
2019-03-26T05:03:32.575Z,4.60
2019-03-26T05:06:02.507Z,5.03
2019-03-26T05:08:32.415Z,5.05
2019-03-26T05:11:02.429Z,5.00
2019-03-26T05:13:32.429Z,5.58
2019-03-26T05:16:02.429Z,6.08
2019-03-26T05:18:32.334Z,5.80
2019-03-26T05:21:02.220Z,5.80
2019-03-26T05:23:32.139Z,5.47
2019-03-26T05:26:02.001Z,6.10
2019-03-26T05:28:35.522Z,5.60
2019-03-26T05:31:05.410Z,5.92
2019-03-26T05:33:35.307Z,5.50
2019-03-26T05:36:05.163Z,5.62
2019-03-26T05:38:35.047Z,6.22
2019-03-26T05:41:04.977Z,5.95
2019-03-26T05:43:34.843Z,6.30
2019-03-26T05:46:04.818Z,5.78
2019-03-26T05:48:35.716Z,5.58
2019-03-26T05:51:05.554Z,6.30
2019-03-26T05:53:35.433Z,6.30
2019-03-26T05:56:05.297Z,6.95
2019-03-26T05:58:35.536Z,6.53
2019-03-26T06:01:05.484Z,6.42
2019-03-26T06:03:35.336Z,6.58
2019-03-26T06:06:05.283Z,6.15
2019-03-26T06:08:35.507Z,6.20
2019-03-26T06:11:05.478Z,6.10
2019-03-26T06:13:35.429Z,6.20
2019-03-26T06:16:05.465Z,6.62
2019-03-26T06:18:36.488Z,6.83
2019-03-26T06:21:06.479Z,6.40
2019-03-26T06:23:36.537Z,6.40
2019-03-26T06:26:06.429Z,6.55
2019-03-26T06:28:36.392Z,6.50
2019-03-26T06:31:06.277Z,6.17
2019-03-26T06:33:36.129Z,7.00
2019-03-26T06:36:06.088Z,6.58
2019-03-26T06:38:35.981Z,6.25
2019-03-26T06:41:05.900Z,6.78
2019-03-26T06:43:36.802Z,7.30
2019-03-26T06:46:06.982Z,6.20
2019-03-26T06:48:36.990Z,6.73
2019-03-26T06:51:06.865Z,6.53
2019-03-26T06:53:36.779Z,6.83
2019-03-26T06:56:06.732Z,6.97
2019-03-26T06:58:36.714Z,7.67
2019-03-26T07:01:06.781Z,6.57
2019-03-26T07:03:36.653Z,7.00
2019-03-26T07:06:06.649Z,8.47
2019-03-26T07:08:36.596Z,6.57
2019-03-26T07:11:06.471Z,6.90
2019-03-26T07:13:36.340Z,7.37
2019-03-26T07:16:06.301Z,7.63
2019-03-26T07:18:36.214Z,7.13
2019-03-26T07:21:06.241Z,6.73
2019-03-26T07:23:36.095Z,7.20
2019-03-26T07:26:05.964Z,7.27
2019-03-26T07:28:35.886Z,7.03
2019-03-26T07:31:07.368Z,7.43
2019-03-26T07:33:38.974Z,7.63
2019-03-26T07:36:08.881Z,7.63
2019-03-26T07:38:38.746Z,7.17
2019-03-26T07:41:08.701Z,6.97
2019-03-26T07:43:38.717Z,7.57
2019-03-26T07:46:08.566Z,7.87
2019-03-26T07:48:38.504Z,9.20
2019-03-26T07:51:08.499Z,7.40
2019-03-26T07:53:38.423Z,7.60
2019-03-26T07:56:08.347Z,7.57
2019-03-26T07:58:38.189Z,7.00
2019-03-26T08:01:08.294Z,7.40
2019-03-26T08:03:38.148Z,7.90
2019-03-26T08:06:08.034Z,7.73
2019-03-26T08:08:40.574Z,7.63
2019-03-26T08:11:09.439Z,7.87
2019-03-26T08:13:41.008Z,7.40
2019-03-26T08:16:10.871Z,7.53
2019-03-26T08:18:40.808Z,7.23
2019-03-26T08:21:14.075Z,6.93
2019-03-26T08:23:43.943Z,6.93
2019-03-26T08:26:13.812Z,7.07
2019-03-26T08:28:43.754Z,7.70
2019-03-26T08:31:14.594Z,7.07
2019-03-26T08:33:45.453Z,7.53
2019-03-26T08:36:15.392Z,7.17
2019-03-26T08:38:45.325Z,7.13
2019-03-26T08:41:15.180Z,7.33
2019-03-26T08:43:45.066Z,7.33
2019-03-26T08:46:15.003Z,7.43
2019-03-26T08:48:44.967Z,6.83
2019-03-26T08:51:14.916Z,6.63
2019-03-26T08:53:44.851Z,7.17
2019-03-26T08:56:14.686Z,6.33
2019-03-26T08:58:44.597Z,6.73
2019-03-26T09:01:14.523Z,6.90
2019-03-26T09:03:44.532Z,6.57
2019-03-26T09:06:14.463Z,6.00
2019-03-26T09:08:44.371Z,5.13
2019-03-26T09:11:14.286Z,4.30
2019-03-26T09:13:44.148Z,3.90
2019-03-26T09:16:14.024Z,3.77
2019-03-26T09:18:43.971Z,3.67
2019-03-26T09:21:13.891Z,3.93
2019-03-26T09:23:43.825Z,3.93
2019-03-26T09:26:15.551Z,4.10
2019-03-26T09:28:47.841Z,3.77
2019-03-26T09:31:18.071Z,4.10
2019-03-26T09:33:47.985Z,3.67
2019-03-26T09:36:17.854Z,4.07
2019-03-26T09:38:48.260Z,3.43
2019-03-26T09:41:18.183Z,3.40
2019-03-26T09:43:48.126Z,4.07
2019-03-26T09:46:18.053Z,4.20
2019-03-26T09:48:48.072Z,4.40
2019-03-26T09:51:18.001Z,3.97
2019-03-26T09:53:47.874Z,4.10
2019-03-26T09:56:28.278Z,4.33
2019-03-26T09:58:49.346Z,4.23
2019-03-26T10:01:19.183Z,4.50
2019-03-26T10:03:49.027Z,4.90
2019-03-26T10:06:23.508Z,4.53
2019-03-26T10:08:52.573Z,4.37
2019-03-26T10:11:23.114Z,4.10
2019-03-26T10:13:53.036Z,3.93
2019-03-26T10:16:22.984Z,3.67
2019-03-26T10:18:52.817Z,3.40
2019-03-26T10:21:22.684Z,3.63
2019-03-26T10:23:52.543Z,3.60
2019-03-26T10:26:22.418Z,4.00
2019-03-26T10:28:52.283Z,4.10
2019-03-26T10:31:22.276Z,4.30
2019-03-26T10:33:52.195Z,3.97
2019-03-26T10:36:22.143Z,4.07
2019-03-26T10:39:05.085Z,3.83
2019-03-26T10:41:23.547Z,4.27
2019-03-26T10:43:53.393Z,5.00
2019-03-26T10:46:23.262Z,4.43
2019-03-26T10:48:53.193Z,4.70
2019-03-26T10:51:23.175Z,4.80
2019-03-26T10:53:53.086Z,4.60
2019-03-26T10:56:22.987Z,4.47
2019-03-26T10:58:52.990Z,4.13
2019-03-26T11:01:22.843Z,3.80
2019-03-26T11:03:52.770Z,4.17
2019-03-26T11:06:22.625Z,4.17
2019-03-26T11:08:52.508Z,4.77
2019-03-26T11:11:22.514Z,4.60
2019-03-26T11:13:52.403Z,4.57
2019-03-26T11:16:22.338Z,4.03
2019-03-26T11:18:52.243Z,4.27
2019-03-26T11:21:22.183Z,4.77
2019-03-26T11:23:52.185Z,4.77
2019-03-26T11:26:22.107Z,4.47
2019-03-26T11:28:51.970Z,4.20
2019-03-26T11:31:21.827Z,4.33
2019-03-26T11:33:51.760Z,4.53
2019-03-26T11:36:21.609Z,4.03
2019-03-26T11:38:51.595Z,3.63
2019-03-26T11:41:21.445Z,3.40
2019-03-26T11:43:51.384Z,4.20
2019-03-26T11:46:21.315Z,4.17
2019-03-26T11:48:51.160Z,3.53
2019-03-26T11:51:21.099Z,3.93
2019-03-26T11:53:51.029Z,4.23
2019-03-26T11:56:20.964Z,4.20
2019-03-26T11:58:50.875Z,3.80
2019-03-26T12:01:20.824Z,3.77
2019-03-26T12:03:50.724Z,3.87
2019-03-26T12:06:20.808Z,3.60
2019-03-26T12:08:50.748Z,3.93
2019-03-26T12:11:20.590Z,3.53
2019-03-26T12:13:50.524Z,3.60
2019-03-26T12:16:20.455Z,3.17
2019-03-26T12:18:50.417Z,3.20
2019-03-26T12:21:20.348Z,3.37
2019-03-26T12:23:50.363Z,3.17
2019-03-26T12:26:20.221Z,3.57
2019-03-26T12:28:50.156Z,2.90
2019-03-26T12:31:20.045Z,3.10
2019-03-26T12:33:49.968Z,2.60
2019-03-26T12:36:19.852Z,3.20
2019-03-26T12:38:50.776Z,2.97
2019-03-26T12:41:20.706Z,2.80
2019-03-26T12:43:50.709Z,3.03
2019-03-26T12:46:22.090Z,2.90
2019-03-26T12:48:51.919Z,3.03
2019-03-26T12:51:21.769Z,2.70
2019-03-26T12:53:51.637Z,2.30
2019-03-26T12:56:21.547Z,2.87
2019-03-26T12:58:51.427Z,2.83
2019-03-26T13:01:21.273Z,2.83
2019-03-26T13:03:51.208Z,2.53
2019-03-26T13:06:21.129Z,2.90
2019-03-26T13:08:51.005Z,2.37
2019-03-26T13:11:20.947Z,2.40
2019-03-26T13:13:50.964Z,2.77
2019-03-26T13:16:20.898Z,2.67
2019-03-26T13:18:50.967Z,2.63
2019-03-26T13:21:20.800Z,2.73
2019-03-26T13:23:50.676Z,2.93
2019-03-26T13:26:20.526Z,3.10
2019-03-26T13:28:50.475Z,2.70
2019-03-26T13:31:20.396Z,2.70
2019-03-26T13:33:50.258Z,3.10
2019-03-26T13:36:20.156Z,3.07
2019-03-26T13:38:50.135Z,3.00
2019-03-26T13:41:20.084Z,3.13
2019-03-26T13:43:49.997Z,2.60
2019-03-26T13:46:19.874Z,2.77
2019-03-26T13:48:49.788Z,3.20
2019-03-26T13:51:19.670Z,2.60
2019-03-26T13:53:49.610Z,3.53
2019-03-26T13:56:19.488Z,3.40
2019-03-26T13:58:49.410Z,3.10
2019-03-26T14:01:19.368Z,2.90
2019-03-26T14:03:49.357Z,3.13
2019-03-26T14:06:19.302Z,3.10
2019-03-26T14:08:50.431Z,3.10
2019-03-26T14:11:20.407Z,3.10
2019-03-26T14:13:50.328Z,3.23
2019-03-26T14:16:20.193Z,3.13
2019-03-26T14:18:50.103Z,2.80
2019-03-26T14:21:19.972Z,3.17
2019-03-26T14:23:49.824Z,3.50
2019-03-26T14:26:19.745Z,3.57
2019-03-26T14:28:49.571Z,3.20
2019-03-26T14:31:19.419Z,3.40
2019-03-26T14:33:49.308Z,3.57
2019-03-26T14:36:20.260Z,3.30
2019-03-26T14:38:51.231Z,3.47
2019-03-26T14:41:21.230Z,3.33
2019-03-26T14:43:51.169Z,3.03
2019-03-26T14:46:21.081Z,2.90
2019-03-26T14:48:51.037Z,2.80
2019-03-26T14:51:23.082Z,3.47
2019-03-26T14:53:52.576Z,3.00
2019-03-26T14:56:22.569Z,2.77
2019-03-26T14:58:52.566Z,3.13
2019-03-26T15:01:22.482Z,3.40
2019-03-26T15:03:52.345Z,3.30
2019-03-26T15:06:22.344Z,3.70
2019-03-26T15:08:52.349Z,3.23
2019-03-26T15:11:22.251Z,3.93
2019-03-26T15:13:52.112Z,4.20
2019-03-26T15:16:22.030Z,3.70
2019-03-26T15:18:51.936Z,3.90
2019-03-26T15:21:21.831Z,3.90
2019-03-26T15:23:51.669Z,3.90
2019-03-26T15:26:21.676Z,4.80
2019-03-26T15:28:51.535Z,4.47
2019-03-26T15:31:21.404Z,4.20
2019-03-26T15:33:51.271Z,4.57
2019-03-26T15:36:21.129Z,4.43
2019-03-26T15:38:51.068Z,4.70
2019-03-26T15:41:22.033Z,4.13
2019-03-26T15:43:53.316Z,4.20
2019-03-26T15:46:24.303Z,4.30
2019-03-26T15:48:54.296Z,5.13
2019-03-26T15:51:24.228Z,4.37
2019-03-26T15:53:54.272Z,4.70
2019-03-26T15:56:24.202Z,4.40
2019-03-26T15:58:54.132Z,4.10
2019-03-26T16:01:27.019Z,4.67
2019-03-26T16:03:56.940Z,4.87
2019-03-26T16:06:26.825Z,4.30
2019-03-26T16:08:56.690Z,4.63
2019-03-26T16:11:35.535Z,4.43
2019-03-26T16:13:58.289Z,4.57
2019-03-26T16:16:28.132Z,4.67
2019-03-26T16:18:57.987Z,4.77
2019-03-26T16:21:28.081Z,4.30
2019-03-26T16:23:58.102Z,4.37
2019-03-26T16:26:28.016Z,4.50
2019-03-26T16:28:57.875Z,4.77
2019-03-26T16:31:27.756Z,3.83
2019-03-26T16:33:57.681Z,3.90
2019-03-26T16:36:27.543Z,4.40
2019-03-26T16:38:57.541Z,4.40
2019-03-26T16:41:27.454Z,4.20
2019-03-26T16:43:57.310Z,4.10
2019-03-26T16:46:27.248Z,4.90
2019-03-26T16:48:57.118Z,4.90
2019-03-26T16:51:27.056Z,5.10
2019-03-26T16:53:57.032Z,4.70
2019-03-26T16:56:26.905Z,4.57
2019-03-26T16:58:56.785Z,4.90
2019-03-26T17:01:26.800Z,5.20
2019-03-26T17:03:56.717Z,4.63
2019-03-26T17:06:27.646Z,5.07
2019-03-26T17:08:57.585Z,5.00
2019-03-26T17:11:27.634Z,5.17
2019-03-26T17:13:57.486Z,5.73
2019-03-26T17:16:27.404Z,5.70
2019-03-26T17:18:57.341Z,6.10
2019-03-26T17:21:27.222Z,4.97
2019-03-26T17:23:57.154Z,5.63
2019-03-26T17:26:28.695Z,5.87
2019-03-26T17:28:58.781Z,5.83
2019-03-26T17:31:28.637Z,6.27
2019-03-26T17:33:58.529Z,6.23
2019-03-26T17:36:28.476Z,6.73
2019-03-26T17:38:58.343Z,6.50
2019-03-26T17:41:28.270Z,6.10
2019-03-26T17:43:58.226Z,5.87
2019-03-26T17:46:28.428Z,5.87
2019-03-26T17:48:58.365Z,5.97
2019-03-26T17:51:28.361Z,6.17
2019-03-26T17:53:58.561Z,5.77
2019-03-26T17:56:29.694Z,6.50
2019-03-26T17:58:59.680Z,6.37
2019-03-26T18:01:29.656Z,6.10
2019-03-26T18:03:59.927Z,5.83
2019-03-26T18:06:29.867Z,5.90
2019-03-26T18:08:59.741Z,5.93
2019-03-26T18:11:29.655Z,6.67
2019-03-26T18:13:59.511Z,6.20
2019-03-26T18:16:29.431Z,6.43
2019-03-26T18:18:59.373Z,6.60
2019-03-26T18:21:29.305Z,6.43
2019-03-26T18:23:59.202Z,5.87
2019-03-26T18:26:29.159Z,6.10
2019-03-26T18:28:59.535Z,6.17
2019-03-26T18:31:29.471Z,6.83
2019-03-26T18:33:59.497Z,6.90
2019-03-26T18:36:29.438Z,6.87
2019-03-26T18:38:59.607Z,6.73
2019-03-26T18:41:31.133Z,5.90
2019-03-26T18:44:00.990Z,6.33
2019-03-26T18:46:30.904Z,5.57
2019-03-26T18:49:00.901Z,6.57
2019-03-26T18:51:30.887Z,6.57
2019-03-26T18:54:00.911Z,7.30
2019-03-26T18:56:30.934Z,5.97
2019-03-26T18:59:00.933Z,6.23
2019-03-26T19:01:31.014Z,6.90
2019-03-26T19:04:01.024Z,7.30
2019-03-26T19:06:31.007Z,6.07
2019-03-26T19:09:01.309Z,7.03
2019-03-26T19:11:32.904Z,6.63
2019-03-26T19:14:03.010Z,6.20
2019-03-26T19:16:33.059Z,7.03
2019-03-26T19:19:02.972Z,6.13
2019-03-26T19:21:33.015Z,5.70
2019-03-26T19:24:04.461Z,6.10
2019-03-26T19:26:34.623Z,5.90
2019-03-26T19:29:04.684Z,5.93
2019-03-26T19:31:34.619Z,6.70
2019-03-26T19:34:04.647Z,7.23
2019-03-26T19:36:34.580Z,6.70
2019-03-26T19:39:06.938Z,7.20
2019-03-26T19:41:37.951Z,6.57
2019-03-26T19:44:07.820Z,7.20
2019-03-26T19:46:38.877Z,7.50
2019-03-26T19:49:08.819Z,7.37
2019-03-26T19:51:38.777Z,8.30
2019-03-26T19:54:08.699Z,8.17
2019-03-26T19:56:38.729Z,7.50
2019-03-26T19:59:08.672Z,7.73
2019-03-26T20:01:38.640Z,7.80
2019-03-26T20:04:08.556Z,7.37
2019-03-26T20:06:38.419Z,6.90
2019-03-26T20:09:08.525Z,7.53
2019-03-26T20:11:38.505Z,7.23
2019-03-26T20:14:08.380Z,6.90
2019-03-26T20:16:42.089Z,7.87
2019-03-26T20:19:09.808Z,7.27
2019-03-26T20:21:39.676Z,7.40
2019-03-26T20:24:09.527Z,7.97
2019-03-26T20:26:39.540Z,8.53
2019-03-26T20:29:09.471Z,8.63
2019-03-26T20:31:39.324Z,8.67
2019-03-26T20:34:09.286Z,8.50
2019-03-26T20:36:39.215Z,8.60
2019-03-26T20:39:09.168Z,8.63
2019-03-26T20:41:39.210Z,9.07
2019-03-26T20:44:09.065Z,8.53
2019-03-26T20:46:39.029Z,9.87
2019-03-26T20:49:09.017Z,10.53
2019-03-26T20:51:39.104Z,10.33
2019-03-26T20:54:08.960Z,10.97
2019-03-26T20:56:40.837Z,10.30
2019-03-26T20:59:11.020Z,11.50
2019-03-26T21:01:40.971Z,11.40
2019-03-26T21:04:11.980Z,11.07
2019-03-26T21:06:41.867Z,10.43
2019-03-26T21:09:11.842Z,10.60
2019-03-26T21:11:41.842Z,11.50
2019-03-26T21:14:11.794Z,10.97
2019-03-26T21:16:41.643Z,11.83
2019-03-26T21:19:11.670Z,12.37
2019-03-26T21:21:41.602Z,12.50
2019-03-26T21:24:11.470Z,11.97
2019-03-26T21:26:41.412Z,12.20
2019-03-26T21:29:12.921Z,11.77
2019-03-26T21:31:42.799Z,11.27
2019-03-26T21:34:13.261Z,12.07
2019-03-26T21:36:44.727Z,11.30
2019-03-26T21:39:14.801Z,12.00
2019-03-26T21:41:45.119Z,12.17
2019-03-26T21:44:15.731Z,12.17
2019-03-26T21:46:46.333Z,12.10
2019-03-26T21:49:16.357Z,11.73
2019-03-26T21:51:46.777Z,12.30
2019-03-26T21:54:17.249Z,12.73
2019-03-26T21:56:47.121Z,12.23
2019-03-26T21:59:17.083Z,12.20
2019-03-26T22:01:47.003Z,12.80
2019-03-26T22:04:17.321Z,12.03
2019-03-26T22:06:47.261Z,12.90
2019-03-26T22:09:17.197Z,13.03
2019-03-26T22:11:50.172Z,12.50
2019-03-26T22:14:18.809Z,13.40
2019-03-26T22:16:48.759Z,12.10
2019-03-26T22:19:28.559Z,11.87
2019-03-26T22:21:51.379Z,12.67
2019-03-26T22:24:21.600Z,12.43
2019-03-26T22:26:51.548Z,11.80
2019-03-26T22:29:21.500Z,11.73
2019-03-26T22:31:51.520Z,13.27
2019-03-26T22:34:21.435Z,12.17
2019-03-26T22:36:51.402Z,12.43
2019-03-26T22:39:21.320Z,12.67
2019-03-26T22:41:51.197Z,12.27
2019-03-26T22:44:30.848Z,11.60
2019-03-26T22:46:52.718Z,12.80
2019-03-26T22:49:22.678Z,12.13
2019-03-26T22:51:52.645Z,12.10
2019-03-26T22:54:22.517Z,12.47
2019-03-26T22:56:52.360Z,13.40
2019-03-26T22:59:22.232Z,12.17
2019-03-26T23:01:52.160Z,12.90
2019-03-26T23:04:22.108Z,13.03
2019-03-26T23:06:51.980Z,12.33
2019-03-26T23:09:22.502Z,12.60
2019-03-26T23:11:52.507Z,12.40
2019-03-26T23:14:22.375Z,12.20
2019-03-26T23:16:52.311Z,11.80
2019-03-26T23:19:23.034Z,12.80
2019-03-26T23:21:52.980Z,13.73
2019-03-26T23:24:22.860Z,13.33
2019-03-26T23:26:52.738Z,14.00
2019-03-26T23:29:22.605Z,13.10
2019-03-26T23:31:52.480Z,12.80
2019-03-26T23:34:22.406Z,12.67
2019-03-26T23:36:52.297Z,12.63
2019-03-26T23:39:22.233Z,13.07
2019-03-26T23:41:52.106Z,12.73
2019-03-26T23:44:26.003Z,12.47
2019-03-26T23:46:53.667Z,13.20
2019-03-26T23:49:23.583Z,13.33
2019-03-26T23:51:53.464Z,13.27
2019-03-26T23:54:23.398Z,14.13
2019-03-26T23:56:53.297Z,13.60
2019-03-26T23:59:23.223Z,14.50
